createdAt,value
2022-10-20T00:02:12.841Z,100121.05
2022-10-20T00:04:41.997Z,100118.17
2022-10-20T00:07:13.316Z,100123.09
2022-10-20T00:09:43.281Z,100125.99
2022-10-20T00:12:13.892Z,100129.91
2022-10-20T00:14:43.016Z,100132.46
2022-10-20T00:17:13.084Z,100129.02
2022-10-20T00:19:46.334Z,100133.12
2022-10-20T00:22:16.673Z,100141.95
2022-10-20T00:24:46.996Z,100135.34
2022-10-20T00:27:15.944Z,100142.98
2022-10-20T00:29:49.252Z,100137.39
2022-10-20T00:32:18.836Z,100134.34
2022-10-20T00:34:48.508Z,100129.08
2022-10-20T00:37:18.339Z,100138.09
2022-10-20T00:39:48.474Z,100143.19
2022-10-20T00:42:21.910Z,100145.05
2022-10-20T00:44:59.675Z,100157.62
2022-10-20T00:47:59.956Z,100157.80
2022-10-20T00:50:36.816Z,100161.19
2022-10-20T00:53:06.499Z,100163.06
2022-10-20T00:55:39.993Z,100159.16
2022-10-20T00:58:09.584Z,100162.20
2022-10-20T01:00:40.135Z,100166.11
2022-10-20T01:03:15.483Z,100164.75
2022-10-20T01:05:45.550Z,100162.20
2022-10-20T01:08:14.500Z,100164.41
2022-10-20T01:11:04.081Z,100161.87
2022-10-20T01:13:55.243Z,100164.58
2022-10-20T01:16:49.695Z,100163.91
2022-10-20T01:19:35.117Z,100165.95
2022-10-20T01:22:28.193Z,100158.98
2022-10-20T01:25:24.632Z,100162.04
2022-10-20T01:27:59.460Z,100162.72
2022-10-20T01:30:29.794Z,100167.27
2022-10-20T01:33:19.892Z,100161.16
2022-10-20T01:36:06.436Z,100154.02
2022-10-20T01:38:40.290Z,100168.45
2022-10-20T01:41:17.771Z,100171.33
2022-10-20T01:43:47.481Z,100174.38
2022-10-20T01:46:17.048Z,100183.54
2022-10-20T01:48:47.446Z,100184.55
2022-10-20T01:51:17.479Z,100189.98
2022-10-20T01:53:48.962Z,100187.25
2022-10-20T01:56:22.745Z,100189.45
2022-10-20T01:58:59.810Z,100190.30
2022-10-20T02:01:50.203Z,100194.39
2022-10-20T02:04:21.886Z,100192.69
2022-10-20T02:07:08.259Z,100198.12
2022-10-20T02:09:47.465Z,100187.09
2022-10-20T02:12:25.539Z,100198.98
2022-10-20T02:14:54.943Z,100195.59
2022-10-20T02:17:23.939Z,100204.59
2022-10-20T02:19:53.460Z,100199.16
2022-10-20T02:22:22.682Z,100202.04
2022-10-20T02:24:52.853Z,100203.05
2022-10-20T02:27:27.234Z,100211.02
2022-10-20T02:30:08.631Z,100216.78
2022-10-20T02:32:41.060Z,100217.30
2022-10-20T02:35:14.905Z,100218.66
2022-10-20T02:37:45.040Z,100222.91
2022-10-20T02:40:14.883Z,100214.43
2022-10-20T02:42:45.275Z,100225.13
2022-10-20T02:45:14.503Z,100223.09
2022-10-20T02:47:43.439Z,100217.49
2022-10-20T02:50:12.530Z,100222.92
2022-10-20T02:52:42.817Z,100216.30
2022-10-20T02:55:11.763Z,100235.14
2022-10-20T02:57:42.800Z,100224.95
2022-10-20T03:00:13.974Z,100231.22
2022-10-20T03:02:42.995Z,100233.92
2022-10-20T03:05:13.054Z,100239.34
2022-10-20T03:07:41.939Z,100232.55
2022-10-20T03:10:11.984Z,100242.91
2022-10-20T03:12:42.360Z,100231.55
2022-10-20T03:15:12.162Z,100230.70
2022-10-20T03:17:44.122Z,100230.70
2022-10-20T03:20:14.136Z,100230.70
2022-10-20T03:22:44.336Z,100242.40
2022-10-20T03:25:14.848Z,100232.22
2022-10-20T03:27:44.263Z,100231.53
2022-10-20T03:30:14.586Z,100226.59
2022-10-20T03:32:44.513Z,100226.25
2022-10-20T03:35:13.559Z,100232.53
2022-10-20T03:37:43.516Z,100225.75
2022-10-20T03:40:12.484Z,100241.69
2022-10-20T03:42:42.853Z,100243.05
2022-10-20T03:45:15.049Z,100234.06
2022-10-20T03:47:44.892Z,100233.56
2022-10-20T03:50:17.738Z,100236.78
2022-10-20T03:52:48.943Z,100229.31
2022-10-20T03:55:19.552Z,100230.49
2022-10-20T03:57:49.714Z,100234.05
2022-10-20T04:00:20.394Z,100232.86
2022-10-20T04:02:51.479Z,100241.17
2022-10-20T04:05:21.548Z,100237.27
2022-10-20T04:07:51.035Z,100230.30
2022-10-20T04:10:20.575Z,100236.91
2022-10-20T04:12:51.366Z,100235.88
2022-10-20T04:15:23.713Z,100245.70
2022-10-20T04:17:59.807Z,100244.51
2022-10-20T04:20:30.623Z,100246.53
2022-10-20T04:23:00.012Z,100244.33
2022-10-20T04:25:30.161Z,100243.83
2022-10-20T04:28:00.400Z,100246.87
2022-10-20T04:30:29.832Z,100243.33
2022-10-20T04:33:01.430Z,100247.59
2022-10-20T04:35:30.891Z,100253.84
2022-10-20T04:38:00.904Z,100251.81
2022-10-20T04:40:31.197Z,100256.22
2022-10-20T04:43:01.081Z,100271.48
2022-10-20T04:45:32.295Z,100259.27
2022-10-20T04:48:04.489Z,100263.50
2022-10-20T04:50:34.837Z,100262.12
2022-10-20T04:53:10.203Z,100273.66
2022-10-20T04:55:41.504Z,100268.89
2022-10-20T04:58:11.623Z,100275.81
2022-10-20T05:00:40.379Z,100280.44
2022-10-20T05:05:41.410Z,100281.65
2022-10-20T05:08:11.401Z,100280.13
2022-10-20T05:10:41.266Z,100282.84
2022-10-20T05:13:10.521Z,100294.87
2022-10-20T05:15:39.968Z,100287.91
2022-10-20T05:18:10.881Z,100295.55
2022-10-20T05:21:07.211Z,100299.11
2022-10-20T05:23:14.123Z,100294.19
2022-10-20T05:25:45.395Z,100299.61
2022-10-20T05:28:15.395Z,100304.38
2022-10-20T05:30:45.498Z,100300.30
2022-10-20T05:33:15.356Z,100310.30
2022-10-20T05:35:45.472Z,100300.44
2022-10-20T05:38:15.711Z,100314.19
2022-10-20T05:40:45.345Z,100310.30
2022-10-20T05:43:17.416Z,100318.97
2022-10-20T05:45:49.489Z,100317.96
2022-10-20T05:48:19.272Z,100321.02
2022-10-20T05:50:49.070Z,100325.09
2022-10-20T05:53:18.614Z,100328.31
2022-10-20T05:55:47.473Z,100334.06
2022-10-20T05:58:23.287Z,100332.36
2022-10-20T06:00:53.859Z,100331.02
2022-10-20T06:03:26.058Z,100333.92
2022-10-20T06:05:59.673Z,100340.84
2022-10-20T06:08:32.841Z,100355.08
2022-10-20T06:11:05.477Z,100352.18
2022-10-20T06:13:34.969Z,100355.23
2022-10-20T06:16:11.118Z,100349.81
2022-10-20T06:18:42.846Z,100348.27
2022-10-20T06:21:21.655Z,100353.64
2022-10-20T06:23:51.584Z,100360.98
2022-10-20T06:26:24.221Z,100363.88
2022-10-20T06:29:02.764Z,100354.73
2022-10-20T06:31:35.496Z,100359.84
2022-10-20T06:34:06.036Z,100362.55
2022-10-20T06:36:36.865Z,100359.84
2022-10-20T06:39:07.365Z,100370.03
2022-10-20T06:41:38.030Z,100362.42
2022-10-20T06:44:07.634Z,100359.55
2022-10-20T06:46:39.087Z,100366.33
2022-10-20T06:49:08.395Z,100362.09
2022-10-20T07:03:05.020Z,100384.44
2022-10-20T07:05:36.479Z,100385.39
2022-10-20T07:08:08.025Z,100388.58
2022-10-20T07:10:39.304Z,100384.14
2022-10-20T07:13:10.022Z,100386.67
2022-10-20T07:15:46.638Z,100390.91
2022-10-20T07:18:15.329Z,100388.19
2022-10-20T07:20:45.028Z,100391.07
2022-10-20T07:23:15.536Z,100398.36
2022-10-20T07:25:44.668Z,100396.16
2022-10-20T07:28:13.688Z,100404.62
2022-10-20T07:30:43.202Z,100399.20
2022-10-20T07:33:12.916Z,100398.53
2022-10-20T07:35:43.676Z,100400.39
2022-10-20T07:38:14.114Z,100400.39
2022-10-20T07:40:43.383Z,100411.27
2022-10-20T07:43:13.507Z,100408.39
2022-10-20T07:45:42.727Z,100412.14
2022-10-20T07:48:12.587Z,100415.69
2022-10-20T07:50:43.054Z,100414.84
2022-10-20T07:53:14.604Z,100422.31
2022-10-20T07:55:47.406Z,100425.56
2022-10-20T07:58:16.646Z,100418.77
2022-10-20T08:00:46.808Z,100422.18
2022-10-20T08:03:17.367Z,100427.63
2022-10-20T08:05:47.761Z,100419.66
2022-10-20T08:08:17.312Z,100428.83
2022-10-20T08:10:48.016Z,100427.63
2022-10-20T08:13:17.506Z,100420.84
2022-10-20T08:15:47.868Z,100431.36
2022-10-20T08:18:21.866Z,100434.26
2022-10-20T08:20:52.872Z,100431.54
2022-10-20T08:23:23.301Z,100445.99
2022-10-20T08:25:56.474Z,100445.03
2022-10-20T08:28:27.093Z,100432.84
2022-10-20T08:30:57.381Z,100441.02
2022-10-20T08:33:28.107Z,100453.56
2022-10-20T08:36:05.315Z,100449.14
2022-10-20T08:38:36.056Z,100448.64
2022-10-20T08:41:16.290Z,100453.91
2022-10-20T08:43:46.091Z,100457.98
2022-10-20T08:48:49.836Z,100461.06
2022-10-20T08:51:24.872Z,100463.64
2022-10-20T08:53:56.903Z,100467.20
2022-10-20T08:56:28.595Z,100468.40
2022-10-20T08:58:59.071Z,100476.39
2022-10-20T09:01:33.123Z,100476.41
2022-10-20T09:04:34.399Z,100477.26
2022-10-20T09:07:12.943Z,100476.75
2022-10-20T09:09:42.546Z,100486.28
2022-10-20T09:12:14.961Z,100480.01
2022-10-20T09:14:44.940Z,100487.15
2022-10-20T09:17:16.780Z,100491.39
2022-10-20T09:19:49.955Z,100494.61
2022-10-20T09:22:19.906Z,100498.88
2022-10-20T09:24:51.104Z,100484.77
2022-10-20T09:27:31.270Z,100489.70
2022-10-20T09:30:19.826Z,100494.47
2022-10-20T09:32:49.149Z,100497.20
2022-10-20T09:35:33.214Z,100495.17
2022-10-20T09:38:29.306Z,100507.06
2022-10-20T09:41:04.854Z,100499.92
2022-10-20T09:43:34.479Z,100511.14
2022-10-20T09:46:08.588Z,100505.37
2022-10-20T09:48:46.546Z,100502.00
2022-10-20T09:51:26.892Z,100512.37
2022-10-20T09:54:02.370Z,100505.75
2022-10-20T09:56:37.238Z,100516.45
2022-10-20T09:59:32.713Z,100518.37
2022-10-20T10:02:17.563Z,100519.09
2022-10-20T10:04:50.963Z,100524.20
2022-10-20T10:07:30.767Z,100527.95
2022-10-20T10:10:09.943Z,100532.72
2022-10-20T10:12:41.412Z,100527.78
2022-10-20T10:15:30.532Z,100531.02
2022-10-20T10:18:01.782Z,100528.80
2022-10-20T10:20:37.698Z,100532.72
2022-10-20T10:23:22.279Z,100542.40
2022-10-20T10:25:51.359Z,100543.44
2022-10-20T10:28:30.797Z,100539.88
2022-10-20T10:31:18.669Z,100537.00
2022-10-20T10:33:49.148Z,100534.80
2022-10-20T10:36:23.687Z,100536.68
2022-10-20T10:38:54.607Z,100541.28
2022-10-20T10:44:43.971Z,100557.31
2022-10-20T10:48:08.620Z,100552.22
2022-10-20T10:50:59.442Z,100539.68
2022-10-20T10:54:11.676Z,100537.81
2022-10-20T10:56:48.803Z,100544.63
2022-10-20T10:59:36.483Z,100540.38
2022-10-20T11:02:44.011Z,100540.72
2022-10-20T11:05:30.247Z,100536.97
2022-10-20T11:08:13.047Z,100539.02
2022-10-20T11:11:05.412Z,100537.66
2022-10-20T11:14:00.740Z,100555.02
2022-10-20T11:17:14.081Z,100549.39
2022-10-20T11:20:30.910Z,100558.76
2022-10-20T11:26:17.947Z,100564.20
2022-10-20T11:28:48.446Z,100565.06
2022-10-20T11:31:28.802Z,100566.59
2022-10-20T11:34:05.517Z,100568.98
2022-10-20T11:36:41.812Z,100569.83
2022-10-20T11:39:28.483Z,100574.59
2022-10-20T11:42:01.337Z,100572.89
2022-10-20T11:44:37.833Z,100580.20
2022-10-20T11:47:10.382Z,100576.13
2022-10-20T11:49:40.281Z,100572.37
2022-10-20T11:53:03.601Z,100583.78
2022-10-20T11:55:47.721Z,100593.82
2022-10-20T11:58:36.839Z,100601.31
2022-10-20T12:01:21.229Z,100607.27
2022-10-20T12:04:29.433Z,100606.59
2022-10-20T12:07:30.226Z,100613.22
2022-10-20T12:10:25.748Z,100615.25
2022-10-20T12:13:28.603Z,100617.28
2022-10-20T12:15:57.770Z,100618.30
2022-10-20T12:18:31.863Z,100624.77
2022-10-20T12:21:08.451Z,100624.77
2022-10-20T12:23:53.206Z,100633.61
2022-10-20T12:26:33.684Z,100640.58
2022-10-20T12:29:34.211Z,100639.39
2022-10-20T12:32:25.584Z,100646.20
2022-10-20T12:35:00.621Z,100649.77
2022-10-20T12:37:34.720Z,100650.28
2022-10-20T12:40:15.385Z,100654.88
2022-10-20T12:42:48.435Z,100665.60
2022-10-20T12:45:36.905Z,100667.65
2022-10-20T12:48:09.424Z,100674.80
2022-10-20T12:50:44.972Z,100669.35
2022-10-20T12:53:21.399Z,100671.05
2022-10-20T12:55:59.703Z,100674.97
2022-10-20T12:58:34.836Z,100684.34
2022-10-20T13:01:11.449Z,100677.02
2022-10-20T13:03:48.501Z,100693.87
2022-10-20T13:06:30.507Z,100706.81
2022-10-20T13:09:10.981Z,100701.02
2022-10-20T13:11:46.768Z,100703.74
2022-10-20T13:14:38.159Z,100714.13
2022-10-20T13:17:18.817Z,100715.32
2022-10-20T13:20:01.615Z,100723.33
2022-10-20T13:22:39.293Z,100734.22
2022-10-20T13:25:24.997Z,100721.78
2022-10-20T13:28:08.958Z,100728.08
2022-10-20T13:31:08.343Z,100734.20
2022-10-20T13:34:05.948Z,100729.95
2022-10-20T13:37:07.645Z,100744.59
2022-10-20T13:40:30.934Z,100743.06
2022-10-20T13:43:09.391Z,100750.05
2022-10-20T13:49:14.583Z,100763.02
2022-10-20T14:02:28.548Z,100782.97
2022-10-20T14:05:13.212Z,100772.08
2022-10-20T14:07:44.270Z,100785.69
2022-10-20T14:10:46.336Z,100793.70
2022-10-20T14:13:20.210Z,100795.58
2022-10-20T14:15:53.848Z,100798.80
2022-10-20T14:18:48.777Z,100802.03
2022-10-20T14:21:18.681Z,100807.66
2022-10-20T14:23:48.814Z,100810.03
2022-10-20T14:26:21.799Z,100821.94
2022-10-20T14:28:51.459Z,100819.91
2022-10-20T14:31:23.549Z,100819.91
2022-10-20T14:33:53.082Z,100823.81
2022-10-20T14:36:28.610Z,100839.12
2022-10-20T14:39:00.479Z,100841.84
2022-10-20T14:41:32.111Z,100838.09
2022-10-20T15:10:16.421Z,100870.58
2022-10-20T15:13:05.576Z,100883.85
2022-10-20T15:15:37.734Z,100880.28
2022-10-20T15:18:10.305Z,100882.84
2022-10-20T15:20:40.686Z,100888.98
2022-10-20T15:23:27.942Z,100889.83
2022-10-20T15:26:06.583Z,100901.92
2022-10-20T15:28:49.984Z,100903.45
2022-10-20T15:31:29.843Z,100904.47
2022-10-20T15:33:59.211Z,100892.88
2022-10-20T15:36:32.007Z,100899.69
2022-10-20T15:39:04.465Z,100897.81
2022-10-20T15:41:34.963Z,100911.44
2022-10-20T15:44:11.667Z,100904.28
2022-10-20T15:46:42.912Z,100914.85
2022-10-20T15:49:12.055Z,100913.84
2022-10-20T15:51:47.142Z,100918.27
2022-10-20T15:54:18.867Z,100917.73
2022-10-20T15:56:48.059Z,100921.47
2022-10-20T15:59:18.241Z,100924.39
2022-10-20T16:01:46.988Z,100930.52
2022-10-20T16:04:26.996Z,100932.74
2022-10-20T16:07:02.598Z,100944.48
2022-10-20T16:09:29.248Z,100942.63
2022-10-20T16:11:58.332Z,100935.81
2022-10-20T16:14:27.693Z,100942.63
2022-10-20T16:17:00.572Z,100944.48
2022-10-20T16:19:31.334Z,100953.36
2022-10-20T16:22:00.885Z,100956.59
2022-10-20T16:24:30.908Z,100965.27
2022-10-20T16:27:00.593Z,100963.91
2022-10-20T16:29:30.772Z,100966.63
2022-10-20T16:31:59.850Z,100968.69
2022-10-20T16:34:29.246Z,100970.91
2022-10-20T16:36:58.246Z,100976.86
2022-10-20T16:39:30.032Z,100978.22
2022-10-20T16:41:59.616Z,100977.20
2022-10-20T16:44:30.762Z,100982.81
2022-10-20T16:47:00.417Z,100987.75
2022-10-20T16:49:30.418Z,100996.27
2022-10-20T16:52:01.390Z,100995.42
2022-10-20T16:54:31.440Z,100996.27
2022-10-20T16:57:00.952Z,101004.28
2022-10-20T16:59:30.242Z,100997.64
2022-10-20T17:02:02.657Z,100999.50
2022-10-20T17:04:32.707Z,101004.41
2022-10-20T17:07:01.690Z,101003.72
2022-10-20T17:09:31.837Z,101011.89
2022-10-20T17:12:02.658Z,101012.59
2022-10-20T17:14:33.188Z,101016.67
2022-10-20T17:17:04.623Z,101021.45
2022-10-20T17:19:35.929Z,101020.76
2022-10-20T17:22:04.756Z,101014.45
2022-10-20T17:24:34.124Z,101020.41
2022-10-20T17:27:03.089Z,101023.48
2022-10-20T17:29:32.848Z,101020.92
2022-10-20T17:32:01.510Z,101020.06
2022-10-20T17:34:31.388Z,101027.56
2022-10-20T17:37:01.631Z,101022.63
2022-10-20T17:39:31.470Z,101026.52
2022-10-20T17:42:00.837Z,101029.91
2022-10-20T17:44:31.336Z,101031.27
2022-10-20T17:47:03.524Z,101036.72
2022-10-20T17:49:33.482Z,101036.02
2022-10-20T17:52:04.755Z,101043.49
2022-10-20T17:54:35.345Z,101033.61
2022-10-20T17:57:05.010Z,101035.80
2022-10-20T17:59:42.394Z,101038.33
2022-10-20T18:02:08.887Z,101040.70
2022-10-20T18:04:40.199Z,101032.38
2022-10-20T18:07:10.146Z,101034.40
2022-10-20T18:09:40.775Z,101035.92
2022-10-20T18:12:11.233Z,101041.71
2022-10-20T18:14:40.895Z,101044.59
2022-10-20T18:17:11.141Z,101045.95
2022-10-20T18:19:41.415Z,101049.19
2022-10-20T18:22:11.141Z,101050.39
2022-10-20T18:24:42.970Z,101045.45
2022-10-20T18:27:14.312Z,101045.45
2022-10-20T18:29:43.886Z,101050.73
2022-10-20T18:32:13.071Z,101052.26
2022-10-20T18:34:43.693Z,101056.30
2022-10-20T18:37:18.927Z,101055.45
2022-10-20T18:39:48.496Z,101052.73
2022-10-20T18:42:18.092Z,101054.75
2022-10-20T18:44:47.849Z,101057.28
2022-10-20T18:47:18.114Z,101054.55
2022-10-20T18:49:48.004Z,101063.07
2022-10-20T18:52:17.812Z,101068.87
2022-10-20T18:54:47.040Z,101068.02
2022-10-20T18:57:16.882Z,101073.30
2022-10-20T18:59:46.254Z,101071.94
2022-10-20T19:02:18.940Z,101074.66
2022-10-20T19:04:47.615Z,101080.61
2022-10-20T19:07:18.187Z,101089.28
2022-10-20T19:09:48.465Z,101082.83
2022-10-20T19:12:18.911Z,101086.76
2022-10-20T19:14:48.682Z,101091.35
2022-10-20T19:17:19.507Z,101089.64
2022-10-20T19:19:49.584Z,101091.16
2022-10-20T19:22:18.846Z,101099.48
2022-10-20T19:24:48.109Z,101100.64
2022-10-20T19:27:27.020Z,101098.08
2022-10-20T19:29:50.080Z,101100.80
2022-10-20T19:32:19.903Z,101097.84
2022-10-20T19:34:49.539Z,101106.52
2022-10-20T19:37:19.255Z,101109.23
2022-10-20T19:39:48.266Z,101107.02
2022-10-20T19:42:18.057Z,101102.08
2022-10-20T19:44:47.998Z,101101.73
2022-10-20T19:47:17.755Z,101110.75
2022-10-20T19:49:47.568Z,101107.53
2022-10-20T19:52:16.500Z,101108.03
2022-10-20T19:54:46.758Z,101111.11
2022-10-20T19:57:16.618Z,101109.55
2022-10-20T19:59:45.870Z,101104.61
2022-10-20T20:02:15.289Z,101114.64
2022-10-20T20:04:44.982Z,101112.07
2022-10-20T20:20:14.500Z,101115.19
2022-10-20T20:22:45.749Z,101120.60
2022-10-20T20:25:16.294Z,101121.93
2022-10-20T20:27:47.478Z,101120.53
2022-10-20T20:30:18.883Z,101130.88
2022-10-20T20:32:52.110Z,101132.70
2022-10-20T20:35:22.588Z,101129.75
2022-10-20T20:37:53.761Z,101130.22
2022-10-20T20:40:23.981Z,101137.68
2022-10-20T20:42:54.909Z,101143.08
2022-10-20T20:45:25.089Z,101140.01
2022-10-20T20:47:56.454Z,101144.05
2022-10-20T20:50:27.895Z,101142.26
2022-10-20T20:52:58.921Z,101141.41
2022-10-20T20:55:29.030Z,101139.49
2022-10-20T20:58:00.225Z,101139.64
2022-10-20T21:00:31.355Z,101143.18
2022-10-20T21:03:03.810Z,101146.36
2022-10-20T21:05:40.141Z,101143.59
2022-10-20T21:08:11.631Z,101148.83
2022-10-20T21:10:43.670Z,101149.13
2022-10-20T21:13:15.896Z,101152.20
2022-10-20T21:15:47.679Z,101148.78
2022-10-20T21:18:18.508Z,101148.08
2022-10-20T21:20:49.788Z,101149.94
2022-10-20T21:23:21.763Z,101150.44
2022-10-20T21:25:52.994Z,101155.18
2022-10-20T21:28:23.973Z,101156.89
2022-10-20T21:31:00.161Z,101160.12
2022-10-20T21:33:30.949Z,101160.47
2022-10-20T21:36:08.077Z,101161.98
2022-10-20T21:38:38.886Z,101161.63
2022-10-20T21:41:16.113Z,101161.28
2022-10-20T21:43:48.425Z,101162.99
2022-10-20T21:46:29.068Z,101166.06
2022-10-20T21:49:11.620Z,101169.49
2022-10-20T21:51:45.461Z,101163.04
2022-10-20T21:56:50.487Z,101171.81
2022-10-20T21:59:26.943Z,101168.44
2022-10-20T22:02:01.207Z,101175.39
2022-10-20T22:04:31.657Z,101179.47
2022-10-20T22:07:02.269Z,101179.77
2022-10-20T22:09:34.747Z,101179.56
2022-10-20T22:12:06.783Z,101182.08
2022-10-20T22:14:40.699Z,101188.68
2022-10-20T22:17:11.610Z,101188.33
2022-10-20T22:19:44.216Z,101188.56
2022-10-20T22:22:15.031Z,101194.30
2022-10-20T22:24:47.464Z,101190.17
2022-10-20T22:27:31.402Z,101187.36
2022-10-20T22:29:54.140Z,101187.00
2022-10-20T22:32:24.985Z,101188.98
2022-10-20T22:34:55.176Z,101192.70
2022-10-20T22:37:25.103Z,101187.56
2022-10-20T22:39:56.094Z,101195.02
2022-10-20T22:42:26.245Z,101202.10
2022-10-20T22:44:56.250Z,101207.13
2022-10-20T22:47:26.540Z,101201.62
2022-10-20T22:49:55.572Z,101205.28
2022-10-20T22:52:24.869Z,101201.50
2022-10-20T22:54:56.934Z,101201.79
2022-10-20T22:57:25.708Z,101199.72
2022-10-20T22:59:54.829Z,101208.52
2022-10-20T23:02:23.954Z,101205.45
2022-10-20T23:04:54.857Z,101211.03
2022-10-20T23:07:26.328Z,101212.17
2022-10-20T23:09:56.491Z,101214.53
2022-10-20T23:12:27.656Z,101206.67
2022-10-20T23:14:59.126Z,101211.89
2022-10-20T23:17:30.454Z,101215.61
2022-10-20T23:20:01.113Z,101216.77
2022-10-20T23:22:33.260Z,101217.91
2022-10-20T23:25:02.926Z,101214.48
2022-10-20T23:27:36.082Z,101221.56
2022-10-20T23:30:08.937Z,101218.62
2022-10-20T23:32:38.677Z,101217.91
2022-10-20T23:35:11.845Z,101222.48
2022-10-20T23:37:44.260Z,101227.20
2022-10-20T23:40:15.587Z,101225.34
2022-10-20T23:42:46.678Z,101229.53
2022-10-20T23:45:17.749Z,101229.81
2022-10-20T23:47:47.359Z,101240.11
2022-10-20T23:50:16.981Z,101240.39
2022-10-20T23:52:46.922Z,101241.32
2022-10-20T23:55:17.883Z,101240.17
2022-10-20T23:57:48.810Z,101236.38
